Garyp, Netherlands
Current Conditions -  °F | °C
As of 2:25 PM on Friday 31 Oct 2014 (Local Time) from EHLW Reporting Station
Few Clouds Few Clouds  
Wind Chill: 59°   Ceiling: Unl
Heat Index: 59°   Visibility: 6mi
Dew Point: 54°   Wind: 13mph
Humidity: 82%   Direction: 190°S
Pressure: 30.12"   Gusts: NA
Location:  53.17°N, 5.97°E
Report Text: EHLW 311325Z AUTO 19011KT 9999 FEW370 15/12 Q1020 BLU 19008KT CAVOK
Loading
Personal Weather Stations






























Interactive Weather Map
Tropical Storm Tracking
New forecast layout! Learn more

10-Day Weather Forecast

Advertisements
Track Severe Weather on mobile